Accueil
METAR-TAF:

METAR-TAF

Aéroports :

Regional_Airport

Ruston, Louisiane, États-Unis

latitude: 32-30-52N, longitude: 092-35-18W, altitude: 95 m

Observation

Le bulletin a été fait il y a 21 minutes, à 18:55 UTC
Vent 5 kt de est/sud-est
Température 31°C
Humidité 71%
Pression 1015 hPa
Visibilité: 16.1 km
Quelques nuages à une hauteur de 2600 ft
Nuages épars à une hauteur de 22000 ft
Nuages épars à une hauteur de 25000 ft
Nuages fragmentés à une hauteur de 36000 ft

METAR: KRSN 221855Z AUTO 12005KT 10SM FEW026 SCT220 SCT250 BKN360 31/25 A2998 RMK AO2 LTG DSNT N - E T03070248 $

Heure: 14:16 (19:16 UTC)


TAF: absent

Observations et prévisions météorologiques de plus de 4000 aéroports (messages METAR et TAF).

Les stations disponibles sont représentées par des disques jaunes et rouges sur la carte.

Passer la souris dessus pour voir le nom de la station.

Cliquer dessus pour voir les observations et prévisions météorologiques.

Pour changer de carte: cliquez sur les boutons verts avec une croix noire pour zoomer, sur le bouton vert avec un tiret pour effectuer un zoom arrière, ou sur les flèches vertes pour les cartes adjacentes.


METAR-TAF: